Time;durP1;ratioP1;P1;durP2;ratioP2;P2;SDS_P1;SDS_P2;PMS_P1;PMS_P2;Temp;Humidity;BMP_temperature;BMP_pressure;BME280_temperature;BME280_humidity;BME280_pressure;Samples;Min_cycle;Max_cycle;Signal;HPM_P1;HPM_P2
2022/07/16 00:03:17;;;;;;;4.85;2.90;;;;;;;13.30;98.08;99160.34;4989278;28;20064;-71
2022/07/16 00:05:43;;;;;;;4.50;3.15;;;;;;;13.16;99.45;99167.69;4993501;28;20022;-72
2022/07/16 00:08:08;;;;;;;5.72;3.42;;;;;;;13.10;96.63;99164.97;4990179;28;20072;-72
2022/07/16 00:10:34;;;;;;;5.95;3.63;;;;;;;13.14;100.00;99166.22;4986408;28;20530;-72
2022/07/16 00:12:59;;;;;;;4.88;3.38;;;;;;;13.06;100.00;99156.41;4985603;28;20080;-72
2022/07/16 00:15:24;;;;;;;9.02;3.42;;;;;;;13.03;100.00;99166.88;4983899;28;20468;-72
2022/07/16 00:19:15;;;;;;;5.90;3.25;;;;;;;13.02;100.00;99160.59;4995017;28;20400;-72
2022/07/16 00:20:35;;;;;;;5.72;3.10;;;;;;;13.11;100.00;99153.06;4986530;28;20030;-72
2022/07/16 00:23:00;;;;;;;6.97;3.08;;;;;;;13.10;100.00;99175.84;4989842;28;20053;-72
2022/07/16 00:25:25;;;;;;;5.10;2.80;;;;;;;13.10;100.00;99170.41;4986468;28;20118;-71
2022/07/16 00:27:50;;;;;;;6.22;3.13;;;;;;;12.88;100.00;99183.38;4987231;28;20031;-72
2022/07/16 00:30:16;;;;;;;5.32;3.00;;;;;;;12.66;100.00;99158.31;4991451;28;20030;-72
2022/07/16 00:32:41;;;;;;;6.47;2.80;;;;;;;12.73;100.00;99175.41;4993180;28;20030;-72
2022/07/16 00:35:07;;;;;;;8.35;3.30;;;;;;;12.66;100.00;99175.41;4988120;28;20377;-72
2022/07/16 00:37:32;;;;;;;4.20;2.83;;;;;;;12.67;100.00;99171.66;4993731;28;20041;-71
2022/07/16 00:39:57;;;;;;;4.97;3.20;;;;;;;12.76;100.00;99163.31;4987711;28;20026;-72
2022/07/16 00:42:23;;;;;;;9.75;3.40;;;;;;;12.62;100.00;99168.72;4988229;28;20030;-72
2022/07/16 00:44:49;;;;;;;6.15;3.92;;;;;;;12.55;100.00;99172.47;4992164;28;20366;-72
2022/07/16 00:47:14;;;;;;;9.30;3.50;;;;;;;12.45;100.00;99171.00;4996493;28;20034;-72
2022/07/16 00:49:39;;;;;;;6.32;3.53;;;;;;;12.36;100.00;99177.66;4988194;28;20022;-72
2022/07/16 00:52:04;;;;;;;8.77;3.30;;;;;;;12.32;100.00;99160.16;4993640;28;20057;-72
2022/07/16 00:54:30;;;;;;;8.77;3.50;;;;;;;12.25;100.00;99162.00;4993388;28;20106;-71
2022/07/16 00:56:55;;;;;;;8.05;3.90;;;;;;;12.07;100.00;99149.00;4988686;28;20133;-72
2022/07/16 00:59:20;;;;;;;7.60;3.47;;;;;;;12.05;100.00;99168.22;4993651;28;20058;-72
2022/07/16 01:01:46;;;;;;;5.82;3.20;;;;;;;12.19;100.00;99162.81;4992792;28;20038;-72
2022/07/16 01:04:12;;;;;;;4.55;3.10;;;;;;;12.22;100.00;99174.09;4990525;28;20030;-72
2022/07/16 01:06:37;;;;;;;7.97;3.30;;;;;;;12.27;100.00;99163.47;4992386;28;20027;-72
2022/07/16 01:09:03;;;;;;;7.53;3.33;;;;;;;12.27;100.00;99184.34;4989561;28;20022;-72
2022/07/16 01:11:31;;;;;;;8.32;3.50;;;;;;;12.07;100.00;99171.53;4989359;28;20057;-72
2022/07/16 01:13:57;;;;;;;7.10;3.00;;;;;;;12.01;100.00;99177.78;4993355;28;20033;-72
2022/07/16 01:16:22;;;;;;;7.13;3.80;;;;;;;11.97;100.00;99187.38;4983244;28;20035;-72
2022/07/16 01:18:47;;;;;;;7.72;3.80;;;;;;;11.93;100.00;99185.28;4992982;28;20034;-72
2022/07/16 01:21:14;;;;;;;6.55;3.83;;;;;;;11.92;100.00;99184.44;4992503;28;20030;-71
2022/07/16 01:23:40;;;;;;;5.72;3.95;;;;;;;11.89;100.00;99182.13;4989049;28;20023;-72
2022/07/16 01:26:05;;;;;;;9.57;3.63;;;;;;;11.98;100.00;99175.50;4989443;28;20030;-72
2022/07/16 01:28:30;;;;;;;9.95;3.97;;;;;;;12.01;100.00;99153.38;4984336;28;20014;-72
2022/07/16 01:30:56;;;;;;;6.55;3.65;;;;;;;12.06;100.00;99167.16;4991340;28;20116;-72
2022/07/16 01:33:28;;;;;;;5.32;3.47;;;;;;;12.14;100.00;99170.75;4988362;28;20034;-71
2022/07/16 01:36:15;;;;;;;7.95;3.90;;;;;;;11.92;100.00;99184.44;4989849;28;20030;-72
2022/07/16 01:38:44;;;;;;;5.65;3.47;;;;;;;11.71;100.00;99174.53;4989115;28;20485;-71
2022/07/16 01:41:10;;;;;;;6.85;3.55;;;;;;;11.70;100.00;99183.69;4990070;28;20032;-71
2022/07/16 01:43:37;;;;;;;7.63;3.90;;;;;;;11.61;100.00;99183.00;4985158;28;20501;-72
2022/07/16 01:46:02;;;;;;;10.43;3.60;;;;;;;11.40;100.00;99148.72;4989277;28;20030;-72
2022/07/16 01:48:30;;;;;;;8.13;3.47;;;;;;;11.44;100.00;99165.41;4988699;28;20392;-71
2022/07/16 01:50:56;;;;;;;8.63;3.00;;;;;;;11.43;100.00;99180.00;4984770;28;20403;-72
2022/07/16 01:55:49;;;;;;;5.97;3.47;;;;;;;11.45;100.00;99177.94;4941367;28;20047;-56
2022/07/16 01:58:16;;;;;;;6.03;3.60;;;;;;;11.47;100.00;99175.00;4946113;28;20079;-56
2022/07/16 02:00:44;;;;;;;7.93;3.70;;;;;;;11.46;100.00;99174.19;4951859;28;20019;-57
2022/07/16 02:03:11;;;;;;;4.80;2.83;;;;;;;11.45;100.00;99166.22;4945798;28;20467;-56
2022/07/16 02:05:36;;;;;;;4.13;2.58;;;;;;;11.50;100.00;99175.47;4943554;28;20101;-59
2022/07/16 02:08:03;;;;;;;7.20;3.88;;;;;;;11.55;100.00;99167.56;4950340;28;20026;-56
2022/07/16 02:10:29;;;;;;;6.68;3.70;;;;;;;11.56;100.00;99177.38;4952127;28;20027;-61
2022/07/16 02:12:56;;;;;;;5.63;2.92;;;;;;;11.50;100.00;99172.75;4945910;28;20034;-56
2022/07/16 02:15:21;;;;;;;5.82;3.38;;;;;;;11.41;100.00;99174.75;4956630;28;20054;-56
2022/07/16 02:17:47;;;;;;;6.63;3.03;;;;;;;11.38;100.00;99171.63;4953778;28;20058;-56
2022/07/16 02:20:12;;;;;;;4.72;2.95;;;;;;;11.30;100.00;99175.34;4997156;23;20038;-70
2022/07/16 02:22:38;;;;;;;5.15;3.28;;;;;;;11.33;100.00;99174.09;5047842;28;20029;-70
2022/07/16 02:25:05;;;;;;;9.18;3.85;;;;;;;11.22;100.00;99163.84;5031273;28;20020;-71
2022/07/16 02:27:30;;;;;;;6.95;3.53;;;;;;;11.23;100.00;99176.31;5018462;28;20030;-69
2022/07/16 02:29:56;;;;;;;6.22;3.60;;;;;;;11.17;100.00;99175.25;5002600;28;20029;-71
2022/07/16 02:32:21;;;;;;;8.30;3.85;;;;;;;11.08;100.00;99177.28;5010871;28;20040;-68
2022/07/16 02:34:48;;;;;;;7.57;3.65;;;;;;;10.98;100.00;99182.19;5009464;28;20057;-70
2022/07/16 02:37:14;;;;;;;6.20;3.45;;;;;;;10.80;100.00;99157.50;5014476;28;20030;-68
2022/07/16 02:39:39;;;;;;;7.45;3.53;;;;;;;10.86;100.00;99184.59;5017191;28;20025;-70
2022/07/16 02:42:04;;;;;;;5.97;4.00;;;;;;;10.82;100.00;99188.75;5011544;28;20041;-70
2022/07/16 02:44:29;;;;;;;6.93;3.90;;;;;;;10.74;100.00;99181.59;5015975;28;20030;-70
2022/07/16 02:46:55;;;;;;;9.50;4.18;;;;;;;10.82;100.00;99177.06;5013368;28;20036;-70
2022/07/16 02:49:20;;;;;;;10.20;4.25;;;;;;;10.70;100.00;99174.88;5018203;28;20108;-71
2022/07/16 02:51:45;;;;;;;8.23;4.18;;;;;;;10.83;100.00;99168.75;5011306;28;20537;-70
2022/07/16 02:54:11;;;;;;;9.23;4.75;;;;;;;10.80;100.00;99181.84;5009780;28;20042;-70
2022/07/16 02:56:36;;;;;;;7.53;4.00;;;;;;;10.67;100.00;99175.28;5007807;28;20563;-70
2022/07/16 02:59:02;;;;;;;8.98;4.20;;;;;;;10.54;100.00;99175.16;5014456;28;20017;-70
2022/07/16 03:01:27;;;;;;;4.32;3.03;;;;;;;10.60;100.00;99170.84;5026180;28;20033;-71
2022/07/16 03:03:53;;;;;;;8.25;3.22;;;;;;;10.67;100.00;99169.03;5026969;28;20033;-71
2022/07/16 03:06:18;;;;;;;8.27;4.00;;;;;;;10.69;100.00;99172.41;5024033;28;20033;-70
2022/07/16 03:08:45;;;;;;;8.50;3.17;;;;;;;10.61;100.00;99175.22;5028723;28;20057;-71
2022/07/16 03:11:11;;;;;;;9.13;4.28;;;;;;;10.61;100.00;99170.66;5031116;28;20030;-70
2022/07/16 03:13:36;;;;;;;11.52;4.25;;;;;;;10.64;100.00;99174.84;5035484;28;20052;-71
2022/07/16 03:16:02;;;;;;;6.38;4.65;;;;;;;10.49;100.00;99154.09;5027924;28;20053;-70
2022/07/16 03:18:27;;;;;;;6.97;4.20;;;;;;;10.58;100.00;99172.91;5029043;28;20044;-72
2022/07/16 03:20:53;;;;;;;7.95;4.38;;;;;;;10.63;100.00;99168.56;5045276;28;20109;-70
2022/07/16 03:23:18;;;;;;;9.35;4.75;;;;;;;10.48;100.00;99155.16;5033065;28;20032;-72
2022/07/16 03:25:43;;;;;;;12.48;4.90;;;;;;;10.62;100.00;99179.59;5016136;28;20021;-71
2022/07/16 03:28:09;;;;;;;8.32;4.78;;;;;;;10.51;100.00;99183.69;5011242;28;20049;-70
2022/07/16 03:30:35;;;;;;;8.52;4.13;;;;;;;10.49;100.00;99178.44;5008450;28;20468;-70
2022/07/16 03:33:01;;;;;;;8.85;4.13;;;;;;;10.56;100.00;99186.63;5015851;28;20109;-71
2022/07/16 03:35:26;;;;;;;5.90;3.83;;;;;;;10.37;100.00;99181.84;5013453;28;20029;-70
2022/07/16 03:40:36;;;;;;;8.70;5.00;;;;;;;10.22;100.00;99198.13;5003761;28;20048;-70
2022/07/16 03:43:01;;;;;;;10.05;4.20;;;;;;;10.10;100.00;99184.25;5009762;28;20022;-70
2022/07/16 03:45:26;;;;;;;9.40;4.78;;;;;;;10.19;100.00;99212.84;5007727;28;20029;-70
2022/07/16 03:47:52;;;;;;;6.72;4.80;;;;;;;10.17;100.00;99204.09;5013805;28;20356;-70
2022/07/16 03:50:18;;;;;;;8.55;4.40;;;;;;;10.20;100.00;99206.41;5008131;28;20096;-71
2022/07/16 03:52:44;;;;;;;7.22;4.07;;;;;;;10.31;100.00;99199.69;5006790;28;20215;-70
2022/07/16 03:55:09;;;;;;;10.82;3.83;;;;;;;10.45;100.00;99197.94;5010810;28;20037;-71
2022/07/16 03:57:35;;;;;;;10.02;3.78;;;;;;;10.55;100.00;99198.47;5013736;28;20028;-71
2022/07/16 04:00:00;;;;;;;7.95;3.33;;;;;;;10.60;100.00;99212.25;5015128;28;20026;-71
2022/07/16 04:02:26;;;;;;;8.38;3.97;;;;;;;10.56;100.00;99211.00;5014641;28;20079;-71
2022/07/16 04:04:51;;;;;;;8.23;4.00;;;;;;;10.46;100.00;99195.06;5007123;28;20032;-70
2022/07/16 04:07:16;;;;;;;7.05;4.35;;;;;;;10.50;100.00;99206.31;5018069;28;20030;-71
2022/07/16 04:09:41;;;;;;;8.13;4.32;;;;;;;10.51;100.00;99210.72;5010484;28;20018;-70
2022/07/16 04:12:07;;;;;;;8.50;4.00;;;;;;;10.46;100.00;99214.00;5008129;28;20349;-71
2022/07/16 04:14:32;;;;;;;16.00;4.72;;;;;;;10.49;100.00;99219.03;5018681;28;20196;-70
2022/07/16 04:16:57;;;;;;;8.88;4.05;;;;;;;10.55;100.00;99220.13;5012962;28;20356;-70
2022/07/16 04:19:22;;;;;;;7.47;3.60;;;;;;;10.50;100.00;99200.91;5012052;28;20058;-71
2022/07/16 04:21:48;;;;;;;6.50;3.33;;;;;;;10.63;100.00;99221.84;5009035;28;20336;-70
2022/07/16 04:24:13;;;;;;;5.15;3.10;;;;;;;10.71;100.00;99217.13;5007232;28;20498;-77
2022/07/16 04:26:38;;;;;;;9.45;3.80;;;;;;;10.88;100.00;99220.44;5008134;28;20045;-74
2022/07/16 04:29:04;;;;;;;4.07;3.10;;;;;;;11.00;100.00;99223.44;5001998;28;20048;-76
2022/07/16 04:31:29;;;;;;;7.43;2.88;;;;;;;11.03;100.00;99214.09;5002551;28;20475;-69
2022/07/16 04:33:54;;;;;;;8.35;3.40;;;;;;;11.27;100.00;99224.50;5008231;28;20030;-73
2022/07/16 04:36:20;;;;;;;8.50;4.28;;;;;;;11.46;100.00;99227.53;5012453;28;20045;-77
2022/07/16 04:38:45;;;;;;;6.22;3.22;;;;;;;11.46;100.00;99213.97;5017343;28;20021;-74
2022/07/16 04:41:10;;;;;;;7.75;2.95;;;;;;;11.50;100.00;99213.41;5013908;28;20044;-76
2022/07/16 04:43:36;;;;;;;11.05;2.90;;;;;;;11.56;100.00;99212.59;5003777;28;20045;-77
2022/07/16 04:46:01;;;;;;;8.60;3.03;;;;;;;11.75;100.00;99235.41;5011817;28;20113;-69
2022/07/16 04:48:26;;;;;;;5.72;2.72;;;;;;;11.88;100.00;99225.72;5005353;28;20026;-73
2022/07/16 04:50:52;;;;;;;4.90;2.95;;;;;;;12.02;100.00;99230.97;5026701;28;20049;-74
2022/07/16 04:53:17;;;;;;;7.32;3.22;;;;;;;12.13;100.00;99239.56;5024806;28;20031;-74
2022/07/16 04:55:42;;;;;;;7.38;3.42;;;;;;;12.20;100.00;99221.44;5028607;28;20021;-77
2022/07/16 04:58:08;;;;;;;4.72;3.28;;;;;;;12.18;100.00;99205.41;5024164;28;20180;-75
2022/07/16 05:00:34;;;;;;;7.68;3.30;;;;;;;12.43;100.00;99226.53;5009539;28;20042;-75
2022/07/16 05:02:59;;;;;;;5.22;2.40;;;;;;;12.57;100.00;99221.97;5005363;28;20026;-74
2022/07/16 05:05:27;;;;;;;4.53;2.85;;;;;;;12.73;100.00;99243.28;5011486;28;20028;-75
2022/07/16 05:07:52;;;;;;;5.15;3.40;;;;;;;12.80;100.00;99235.16;5010872;28;20490;-74
2022/07/16 05:10:18;;;;;;;4.68;2.80;;;;;;;12.90;100.00;99224.72;5009096;28;20034;-73
2022/07/16 05:12:44;;;;;;;6.25;2.50;;;;;;;12.98;100.00;99219.09;5011930;28;20100;-73
2022/07/16 05:15:09;;;;;;;7.07;3.10;;;;;;;13.06;100.00;99201.75;5008994;28;20026;-73
2022/07/16 05:17:34;;;;;;;11.30;3.33;;;;;;;13.41;96.13;99236.84;5004848;28;20439;-71
2022/07/16 05:20:00;;;;;;;5.65;3.80;;;;;;;13.41;96.38;99228.69;5010937;28;20018;-71
2022/07/16 05:22:25;;;;;;;12.02;3.13;;;;;;;13.52;94.12;99239.78;5011766;28;20483;-71
2022/07/16 05:24:50;;;;;;;8.18;3.90;;;;;;;13.63;95.73;99249.16;5010017;28;20026;-71
2022/07/16 05:27:16;;;;;;;5.93;3.67;;;;;;;13.82;94.84;99245.56;5015780;28;20030;-72
2022/07/16 05:29:41;;;;;;;6.35;3.03;;;;;;;13.99;96.20;99234.19;5007576;28;20021;-70
2022/07/16 05:32:06;;;;;;;6.03;3.47;;;;;;;14.21;97.65;99238.31;5007978;28;20396;-70
2022/07/16 05:34:32;;;;;;;5.60;3.22;;;;;;;14.41;94.54;99240.09;5002497;28;20022;-71
2022/07/16 05:36:57;;;;;;;6.13;3.63;;;;;;;14.50;90.43;99219.72;5003981;28;20399;-74
2022/07/16 05:39:22;;;;;;;5.07;3.15;;;;;;;14.71;85.95;99242.25;5001564;28;20083;-70
2022/07/16 05:41:48;;;;;;;6.43;3.53;;;;;;;14.94;81.43;99231.63;5006803;28;20030;-76
2022/07/16 05:44:13;;;;;;;14.43;3.85;;;;;;;15.08;78.90;99238.63;5023783;28;20041;-74
2022/07/16 05:46:38;;;;;;;7.95;3.60;;;;;;;15.02;79.24;99244.13;5009190;28;20038;-75
2022/07/16 05:49:03;;;;;;;9.57;3.90;;;;;;;15.28;77.69;99246.66;5001223;28;20030;-74
2022/07/16 05:51:29;;;;;;;11.10;3.65;;;;;;;15.29;77.22;99233.84;4999133;28;21885;-73
2022/07/16 05:53:54;;;;;;;8.05;3.60;;;;;;;15.55;76.04;99241.75;5003069;28;20034;-74
2022/07/16 05:56:19;;;;;;;7.45;3.63;;;;;;;15.82;76.11;99244.25;5009495;28;20044;-73
2022/07/16 05:58:44;;;;;;;13.70;3.47;;;;;;;16.04;73.43;99243.81;5006710;28;20033;-70
2022/07/16 06:01:10;;;;;;;7.10;3.67;;;;;;;16.36;72.42;99260.84;5006343;28;20034;-71
2022/07/16 06:03:38;;;;;;;6.63;3.67;;;;;;;16.62;70.12;99235.06;5008925;28;20360;-72
2022/07/16 06:06:03;;;;;;;5.10;3.10;;;;;;;16.68;66.68;99241.50;5005181;28;20030;-72
2022/07/16 06:08:29;;;;;;;10.77;3.85;;;;;;;16.82;65.66;99253.91;5005653;28;20554;-71
2022/07/16 06:10:54;;;;;;;11.55;3.95;;;;;;;16.83;63.94;99244.66;5001648;28;20128;-73
2022/07/16 06:13:19;;;;;;;6.38;3.35;;;;;;;16.81;64.13;99257.72;5003225;28;20030;-76
2022/07/16 06:15:48;;;;;;;6.60;4.05;;;;;;;16.86;63.53;99246.94;5004315;28;20103;-70
2022/07/16 06:18:13;;;;;;;7.40;3.67;;;;;;;17.03;62.81;99252.56;5012505;28;20391;-70
2022/07/16 06:20:38;;;;;;;7.40;3.83;;;;;;;17.12;62.69;99248.41;5002194;28;20111;-75
2022/07/16 06:23:04;;;;;;;5.93;3.50;;;;;;;17.51;62.53;99257.84;5004035;28;20032;-75
2022/07/16 06:25:29;;;;;;;6.47;3.50;;;;;;;17.74;60.55;99243.34;5003463;28;20591;-75
2022/07/16 06:27:54;;;;;;;5.80;3.20;;;;;;;17.77;60.47;99255.72;5013324;28;20032;-76
2022/07/16 06:30:19;;;;;;;5.82;2.95;;;;;;;17.94;58.83;99255.81;5002050;28;20041;-73
2022/07/16 06:32:45;;;;;;;6.00;3.40;;;;;;;18.35;58.93;99253.97;5003119;28;20065;-78
2022/07/16 06:35:11;;;;;;;6.50;2.88;;;;;;;18.56;58.86;99258.75;4998377;28;20112;-74
2022/07/16 06:37:37;;;;;;;4.93;3.08;;;;;;;18.95;57.49;99242.53;5016173;28;20115;-75
2022/07/16 06:40:03;;;;;;;6.47;3.05;;;;;;;19.33;56.08;99257.41;5013288;28;20048;-77
2022/07/16 06:42:29;;;;;;;5.45;2.83;;;;;;;19.69;53.99;99241.53;5008659;28;20550;-77
2022/07/16 06:44:54;;;;;;;9.80;3.53;;;;;;;19.96;53.29;99243.56;5004018;28;20045;-72
2022/07/16 06:47:19;;;;;;;7.00;2.95;;;;;;;20.53;51.64;99265.97;5008377;28;21972;-71
2022/07/16 06:49:45;;;;;;;6.88;2.92;;;;;;;20.89;50.66;99251.81;5008037;28;20125;-73
2022/07/16 06:52:10;;;;;;;4.50;2.55;;;;;;;21.59;49.18;99250.81;5007724;28;20033;-74
2022/07/16 06:54:35;;;;;;;6.82;3.30;;;;;;;22.26;47.60;99248.44;5006468;28;20483;-74
2022/07/16 06:57:01;;;;;;;9.88;2.58;;;;;;;23.37;45.45;99247.03;4998452;28;20481;-74
2022/07/16 06:59:26;;;;;;;5.80;2.45;;;;;;;24.42;42.93;99250.97;5003203;28;20160;-70
2022/07/16 07:01:51;;;;;;;8.40;2.65;;;;;;;26.16;38.55;99248.81;5010121;28;20152;-70
2022/07/16 07:04:17;;;;;;;6.75;2.35;;;;;;;26.94;36.91;99235.59;5023516;28;20090;-70
2022/07/16 07:06:42;;;;;;;6.10;2.40;;;;;;;27.23;36.11;99249.31;5021648;28;20550;-70
2022/07/16 07:09:07;;;;;;;6.72;2.42;;;;;;;29.05;32.94;99251.59;5010580;28;20026;-70
2022/07/16 07:11:34;;;;;;;4.30;2.15;;;;;;;29.01;31.86;99250.56;5007061;28;20073;-70
2022/07/16 07:13:59;;;;;;;4.47;2.30;;;;;;;30.49;29.99;99256.22;5004337;28;20054;-70
2022/07/16 07:16:24;;;;;;;6.15;2.00;;;;;;;31.27;28.88;99263.88;5004196;28;20049;-72
2022/07/16 07:18:49;;;;;;;4.38;1.90;;;;;;;31.16;29.18;99258.63;5010660;28;20480;-72
2022/07/16 07:21:15;;;;;;;5.57;1.80;;;;;;;32.36;28.00;99260.69;5007561;28;20333;-72
2022/07/16 07:23:40;;;;;;;6.63;1.60;;;;;;;32.38;27.63;99260.31;5008221;28;20592;-71
2022/07/16 07:26:06;;;;;;;4.70;2.42;;;;;;;32.56;27.56;99269.47;5010946;28;20030;-72
2022/07/16 07:28:31;;;;;;;2.83;1.75;;;;;;;32.78;26.93;99265.53;5005248;28;20089;-76
2022/07/16 07:30:57;;;;;;;3.85;1.88;;;;;;;33.55;26.43;99260.50;5005231;28;20029;-75
2022/07/16 07:33:23;;;;;;;4.45;1.90;;;;;;;35.10;25.40;99279.34;5010315;28;20040;-73
2022/07/16 07:35:49;;;;;;;3.05;1.83;;;;;;;32.45;26.54;99253.03;5007093;28;20026;-73
2022/07/16 07:38:14;;;;;;;3.22;1.50;;;;;;;33.79;25.50;99266.19;5002150;28;20022;-76
2022/07/16 07:40:40;;;;;;;3.80;1.92;;;;;;;34.37;25.23;99263.34;5007919;28;20052;-71
2022/07/16 07:43:05;;;;;;;3.25;1.80;;;;;;;33.79;25.52;99257.75;5010658;28;20399;-73
2022/07/16 07:45:31;;;;;;;5.72;1.90;;;;;;;29.51;31.57;99265.56;5020532;28;20048;-75
2022/07/16 07:47:56;;;;;;;6.70;2.15;;;;;;;32.44;27.98;99262.59;5009373;28;22744;-68
2022/07/16 07:50:22;;;;;;;4.30;1.70;;;;;;;34.99;26.33;99264.13;5003916;28;21301;-71
2022/07/16 07:52:47;;;;;;;5.20;2.30;;;;;;;35.33;25.04;99261.94;5003404;28;20488;-74
2022/07/16 07:55:12;;;;;;;7.95;1.80;;;;;;;35.82;24.66;99230.75;5075764;23;20487;-68
2022/07/16 07:57:38;;;;;;;3.03;1.55;;;;;;;35.41;23.72;99254.53;5008327;28;20093;-69
2022/07/16 08:00:06;;;;;;;3.42;1.50;;;;;;;36.28;23.37;99252.84;5012248;28;20117;-69
2022/07/16 08:02:31;;;;;;;2.80;1.25;;;;;;;35.93;23.91;99248.75;5005112;28;20034;-69
2022/07/16 08:04:57;;;;;;;3.47;1.30;;;;;;;36.63;22.76;99227.56;5006092;28;20518;-68
2022/07/16 08:07:22;;;;;;;4.60;1.15;;;;;;;37.35;21.41;99248.88;5006404;28;20506;-69
2022/07/16 08:09:48;;;;;;;4.25;1.00;;;;;;;37.01;21.28;99248.53;4998021;28;20072;-69
2022/07/16 08:12:13;;;;;;;2.53;1.20;;;;;;;37.54;21.24;99233.94;5008333;28;20034;-66
2022/07/16 08:14:39;;;;;;;4.60;1.20;;;;;;;37.04;21.70;99242.97;5012290;28;20031;-67
2022/07/16 08:17:04;;;;;;;6.15;1.45;;;;;;;37.12;20.95;99235.50;5008570;28;20026;-67
2022/07/16 08:19:30;;;;;;;2.53;1.33;;;;;;;36.89;21.05;99254.28;5005448;28;20084;-67
2022/07/16 08:21:56;;;;;;;2.63;1.15;;;;;;;37.63;20.95;99254.28;5005371;28;20095;-70
2022/07/16 08:27:06;;;;;;;5.35;1.52;;;;;;;34.93;23.08;99250.69;5012976;28;20120;-66
2022/07/16 08:29:32;;;;;;;3.30;1.10;;;;;;;36.28;21.86;99241.59;5016526;28;20112;-70
2022/07/16 08:31:58;;;;;;;1.95;0.85;;;;;;;36.61;20.40;99242.00;5010286;28;20032;-72
2022/07/16 08:34:24;;;;;;;4.80;0.93;;;;;;;36.98;20.61;99223.88;5005137;28;20093;-68
2022/07/16 08:36:51;;;;;;;9.70;1.05;;;;;;;37.34;20.35;99225.47;5011019;28;20036;-67
2022/07/16 08:39:17;;;;;;;2.33;1.00;;;;;;;36.39;20.40;99249.13;5004745;28;20049;-66
2022/07/16 08:41:43;;;;;;;2.25;0.77;;;;;;;36.64;18.76;99230.00;5001486;28;20034;-70
2022/07/16 08:44:11;;;;;;;2.35;0.80;;;;;;;36.90;20.03;99244.66;5007846;28;20080;-66
2022/07/16 08:46:37;;;;;;;3.65;0.93;;;;;;;36.69;19.55;99243.00;5007239;28;20064;-69
2022/07/16 08:49:03;;;;;;;1.92;0.90;;;;;;;37.48;19.71;99234.22;5009769;28;20030;-70
2022/07/16 08:51:33;;;;;;;2.90;0.90;;;;;;;37.32;18.95;99244.78;5009537;28;20029;-71
2022/07/16 08:54:20;;;;;;;1.80;0.80;;;;;;;37.92;18.51;99241.50;5011440;28;20103;-72
2022/07/16 08:56:48;;;;;;;2.83;0.88;;;;;;;36.77;19.53;99249.63;5013326;28;20037;-73
2022/07/16 08:59:14;;;;;;;2.33;0.80;;;;;;;37.70;18.71;99249.59;5006111;28;20080;-75
2022/07/16 09:01:39;;;;;;;4.35;0.82;;;;;;;36.55;18.78;99239.84;5009552;28;20041;-75
2022/07/16 09:04:05;;;;;;;3.28;0.77;;;;;;;36.62;19.50;99229.53;5004138;28;20037;-74
2022/07/16 09:06:30;;;;;;;2.17;0.77;;;;;;;38.18;18.86;99232.28;5010332;28;20550;-73
2022/07/16 09:08:56;;;;;;;3.40;0.88;;;;;;;37.57;18.91;99234.00;5008999;28;20096;-72
2022/07/16 09:11:31;;;;;;;1.58;0.85;;;;;;;37.53;18.87;99249.25;5001885;28;20029;-68
2022/07/16 09:14:13;;;;;;;2.15;0.70;;;;;;;37.93;19.20;99246.75;5004750;28;20088;-69
2022/07/16 09:16:44;;;;;;;1.65;0.68;;;;;;;38.68;18.48;99250.06;4997935;28;20092;-69
2022/07/16 09:19:12;;;;;;;1.98;0.55;;;;;;;37.36;18.35;99242.81;5008839;28;20101;-68
2022/07/16 09:22:02;;;;;;;2.20;0.63;;;;;;;38.03;18.80;99251.00;5006331;28;20068;-69
2022/07/16 09:24:32;;;;;;;1.40;0.50;;;;;;;38.16;18.78;99254.47;5006761;28;20029;-68
2022/07/16 09:27:04;;;;;;;3.17;0.60;;;;;;;38.37;17.93;99249.16;5001678;28;20022;-68
2022/07/16 09:29:33;;;;;;;2.63;0.90;;;;;;;37.92;18.44;99256.44;4991561;28;20112;-69
2022/07/16 09:31:58;;;;;;;1.88;0.80;;;;;;;38.55;18.51;99254.31;5002643;28;20112;-69
2022/07/16 09:34:24;;;;;;;1.80;0.70;;;;;;;37.83;18.64;99255.03;5001455;28;20117;-70
2022/07/16 09:37:01;;;;;;;3.20;0.98;;;;;;;37.51;18.56;99252.44;5007058;28;20109;-69
2022/07/16 09:39:30;;;;;;;3.10;0.90;;;;;;;37.25;18.97;99253.91;5005768;28;20617;-69
2022/07/16 09:41:56;;;;;;;2.88;0.80;;;;;;;37.01;19.36;99257.00;5004236;28;20085;-70
2022/07/16 09:44:24;;;;;;;3.63;0.77;;;;;;;38.67;18.22;99261.75;4998022;28;20045;-68
2022/07/16 09:47:09;;;;;;;2.10;1.10;;;;;;;39.08;17.71;99242.94;5002671;28;20093;-69
2022/07/16 09:49:38;;;;;;;2.67;1.10;;;;;;;39.41;17.40;99247.84;4997602;28;20034;-70
2022/07/16 09:52:08;;;;;;;2.83;1.00;;;;;;;38.52;17.81;99252.25;4995683;28;20064;-69
2022/07/16 09:54:36;;;;;;;4.00;0.80;;;;;;;36.87;17.82;99234.13;5005553;28;20038;-70
2022/07/16 09:57:17;;;;;;;1.27;0.60;;;;;;;37.36;18.26;99236.38;4998618;28;20555;-69
2022/07/16 09:59:45;;;;;;;1.77;0.80;;;;;;;36.62;18.49;99243.63;5001242;28;20387;-69
2022/07/16 10:02:10;;;;;;;1.40;0.70;;;;;;;37.58;17.38;99240.47;5003695;28;20045;-69
2022/07/16 10:04:37;;;;;;;3.63;0.77;;;;;;;33.93;19.24;99248.19;5008441;28;20261;-69
2022/07/16 10:07:03;;;;;;;1.58;0.77;;;;;;;34.58;20.29;99240.78;5005383;28;20109;-70
2022/07/16 10:09:29;;;;;;;1.88;0.50;;;;;;;35.97;19.00;99234.75;5016344;28;20110;-70
2022/07/16 10:11:57;;;;;;;1.27;0.60;;;;;;;37.09;18.87;99241.88;5004469;28;20054;-70
2022/07/16 10:14:23;;;;;;;;;;;;;;;37.28;18.02;99235.41;5006147;28;20681;-69
2022/07/16 10:16:49;;;;;;;1.60;0.55;;;;;;;37.74;18.34;99243.19;5006267;28;19921;-69
2022/07/16 10:19:15;;;;;;;3.58;0.57;;;;;;;36.90;19.17;99239.03;5008871;28;20029;-69
2022/07/16 10:22:01;;;;;;;1.80;0.70;;;;;;;37.08;18.93;99248.72;5004181;28;20120;-69
2022/07/16 10:24:43;;;;;;;2.00;0.75;;;;;;;35.02;19.86;99248.53;5003812;28;20037;-69
2022/07/16 10:27:30;;;;;;;3.83;0.90;;;;;;;36.19;19.98;99244.59;5003508;28;20028;-69
2022/07/16 10:30:19;;;;;;;1.63;0.70;;;;;;;35.19;20.31;99247.44;5005532;28;20083;-69
2022/07/16 10:33:00;;;;;;;3.65;0.98;;;;;;;36.58;19.27;99244.75;5004975;28;20022;-70
2022/07/16 10:35:33;;;;;;;8.15;0.80;;;;;;;37.88;18.81;99246.25;5004161;28;20034;-70
2022/07/16 10:38:05;;;;;;;1.15;0.50;;;;;;;37.97;18.76;99244.06;5007466;28;20029;-70
2022/07/16 10:40:31;;;;;;;2.03;0.60;;;;;;;38.90;18.01;99239.06;5007478;28;20129;-70
2022/07/16 10:43:16;;;;;;;2.03;0.52;;;;;;;38.88;17.67;99250.75;5002308;28;20120;-70
2022/07/16 10:46:05;;;;;;;2.67;0.60;;;;;;;38.85;18.64;99245.84;5002722;28;20038;-70
2022/07/16 10:48:50;;;;;;;1.25;0.60;;;;;;;38.30;18.13;99240.53;5000326;28;20034;-69
2022/07/16 10:51:20;;;;;;;1.95;0.70;;;;;;;38.45;18.55;99233.16;5002051;28;20068;-69
2022/07/16 10:53:57;;;;;;;1.77;0.70;;;;;;;38.30;18.60;99234.91;5006647;28;20022;-69
2022/07/16 10:56:31;;;;;;;1.20;0.60;;;;;;;39.34;18.39;99239.25;5006730;28;20120;-69
2022/07/16 10:58:56;;;;;;;1.80;0.80;;;;;;;38.24;18.20;99235.59;5001178;28;20032;-69
2022/07/16 11:01:22;;;;;;;2.33;0.55;;;;;;;37.91;18.26;99212.44;5002514;28;20038;-69
2022/07/16 11:03:53;;;;;;;2.20;0.50;;;;;;;36.85;19.36;99229.66;5014924;28;20049;-69
2022/07/16 11:06:20;;;;;;;1.17;0.50;;;;;;;37.83;19.04;99229.63;5014811;28;20395;-68
2022/07/16 11:08:51;;;;;;;1.58;0.50;;;;;;;38.17;19.09;99233.47;5011851;28;20036;-69
2022/07/16 11:11:16;;;;;;;1.13;0.65;;;;;;;37.55;19.38;99242.03;5007461;28;20072;-68
2022/07/16 11:13:42;;;;;;;1.25;0.60;;;;;;;37.84;19.43;99248.22;5010560;28;20061;-69
2022/07/16 11:16:08;;;;;;;2.83;0.60;;;;;;;37.77;19.23;99237.59;5006248;28;20096;-69
2022/07/16 11:18:37;;;;;;;2.17;0.45;;;;;;;38.20;18.79;99243.19;5010806;28;20033;-69
2022/07/16 11:21:07;;;;;;;1.08;0.47;;;;;;;37.28;18.99;99232.59;5005123;28;20026;-69
2022/07/16 11:23:52;;;;;;;2.13;0.70;;;;;;;37.86;19.44;99228.88;5011404;28;20022;-69
2022/07/16 11:26:19;;;;;;;3.15;0.70;;;;;;;37.41;19.42;99221.97;5009135;28;20045;-69
2022/07/16 11:28:56;;;;;;;1.67;0.70;;;;;;;37.52;19.13;99228.69;5011951;28;20029;-69
2022/07/16 11:31:27;;;;;;;1.30;0.70;;;;;;;38.65;18.18;99224.56;5008762;28;20049;-69
2022/07/16 11:33:56;;;;;;;0.88;0.50;;;;;;;38.71;18.77;99223.03;5007481;28;20029;-69
2022/07/16 11:36:26;;;;;;;1.88;0.50;;;;;;;38.14;18.11;99237.06;5005461;28;20029;-69
2022/07/16 11:39:02;;;;;;;1.67;0.55;;;;;;;38.64;18.07;99232.22;5002676;28;20034;-69